sensor_id;sensor_type;location;lat;lon;timestamp;P1;durP1;ratioP1;P2;durP2;ratioP2
46290;SDS011;32023;44.444;26.006;2022-12-24T00:01:12;183.65;;;77.65;;
46290;SDS011;32023;44.444;26.006;2022-12-24T00:03:50;191.55;;;81.40;;
46290;SDS011;32023;44.444;26.006;2022-12-24T00:06:17;183.35;;;78.32;;
46290;SDS011;32023;44.444;26.006;2022-12-24T00:08:46;188.15;;;79.60;;
46290;SDS011;32023;44.444;26.006;2022-12-24T00:11:19;193.88;;;82.70;;
46290;SDS011;32023;44.444;26.006;2022-12-24T00:13:51;187.00;;;80.95;;
46290;SDS011;32023;44.444;26.006;2022-12-24T00:16:21;182.38;;;79.68;;
46290;SDS011;32023;44.444;26.006;2022-12-24T00:18:49;194.93;;;79.93;;
46290;SDS011;32023;44.444;26.006;2022-12-24T00:21:24;195.10;;;78.93;;
46290;SDS011;32023;44.444;26.006;2022-12-24T00:23:55;187.60;;;78.85;;
46290;SDS011;32023;44.444;26.006;2022-12-24T00:26:46;186.20;;;79.82;;
46290;SDS011;32023;44.444;26.006;2022-12-24T00:31:47;199.43;;;82.50;;
46290;SDS011;32023;44.444;26.006;2022-12-24T00:36:53;199.25;;;82.03;;
46290;SDS011;32023;44.444;26.006;2022-12-24T00:39:53;185.32;;;76.57;;
46290;SDS011;32023;44.444;26.006;2022-12-24T00:42:24;190.38;;;79.80;;
46290;SDS011;32023;44.444;26.006;2022-12-24T00:51:25;191.93;;;81.40;;
46290;SDS011;32023;44.444;26.006;2022-12-24T00:54:01;197.88;;;80.50;;
46290;SDS011;32023;44.444;26.006;2022-12-24T00:56:40;205.13;;;83.03;;
46290;SDS011;32023;44.444;26.006;2022-12-24T00:59:12;200.68;;;81.75;;
46290;SDS011;32023;44.444;26.006;2022-12-24T01:01:41;204.20;;;82.43;;
46290;SDS011;32023;44.444;26.006;2022-12-24T01:04:12;211.40;;;84.35;;
46290;SDS011;32023;44.444;26.006;2022-12-24T01:07:05;192.43;;;79.63;;
46290;SDS011;32023;44.444;26.006;2022-12-24T01:09:52;196.95;;;79.53;;
46290;SDS011;32023;44.444;26.006;2022-12-24T01:12:28;195.43;;;79.93;;
46290;SDS011;32023;44.444;26.006;2022-12-24T01:15:28;206.23;;;80.72;;
46290;SDS011;32023;44.444;26.006;2022-12-24T01:18:18;201.98;;;78.88;;
46290;SDS011;32023;44.444;26.006;2022-12-24T01:23:57;193.63;;;80.80;;
46290;SDS011;32023;44.444;26.006;2022-12-24T01:26:29;189.65;;;81.40;;
46290;SDS011;32023;44.444;26.006;2022-12-24T01:29:31;201.88;;;81.07;;
46290;SDS011;32023;44.444;26.006;2022-12-24T01:32:04;201.30;;;82.82;;
46290;SDS011;32023;44.444;26.006;2022-12-24T01:35:18;205.63;;;79.95;;
46290;SDS011;32023;44.444;26.006;2022-12-24T01:37:50;205.65;;;82.97;;
46290;SDS011;32023;44.444;26.006;2022-12-24T01:40:24;192.60;;;82.30;;
46290;SDS011;32023;44.444;26.006;2022-12-24T01:43:23;201.90;;;83.95;;
46290;SDS011;32023;44.444;26.006;2022-12-24T01:52:28;205.15;;;81.65;;
46290;SDS011;32023;44.444;26.006;2022-12-24T01:55:30;209.10;;;82.20;;
46290;SDS011;32023;44.444;26.006;2022-12-24T01:58:30;203.15;;;82.60;;
46290;SDS011;32023;44.444;26.006;2022-12-24T02:01:35;213.77;;;86.38;;
46290;SDS011;32023;44.444;26.006;2022-12-24T02:07:16;204.60;;;83.78;;
46290;SDS011;32023;44.444;26.006;2022-12-24T02:13:04;205.68;;;82.55;;
46290;SDS011;32023;44.444;26.006;2022-12-24T02:19:27;207.88;;;82.57;;
46290;SDS011;32023;44.444;26.006;2022-12-24T02:25:32;228.00;;;85.88;;
46290;SDS011;32023;44.444;26.006;2022-12-24T02:34:38;207.75;;;85.00;;
46290;SDS011;32023;44.444;26.006;2022-12-24T02:43:42;217.43;;;85.70;;
46290;SDS011;32023;44.444;26.006;2022-12-24T02:46:45;207.50;;;85.13;;
46290;SDS011;32023;44.444;26.006;2022-12-24T02:49:35;233.75;;;86.45;;
46290;SDS011;32023;44.444;26.006;2022-12-24T02:52:48;223.57;;;85.47;;
46290;SDS011;32023;44.444;26.006;2022-12-24T02:56:02;224.95;;;85.38;;
46290;SDS011;32023;44.444;26.006;2022-12-24T03:11:37;217.00;;;83.47;;
46290;SDS011;32023;44.444;26.006;2022-12-24T03:21:42;212.38;;;84.80;;
46290;SDS011;32023;44.444;26.006;2022-12-24T03:24:28;211.73;;;80.60;;
46290;SDS011;32023;44.444;26.006;2022-12-24T03:26:58;218.60;;;86.38;;
46290;SDS011;32023;44.444;26.006;2022-12-24T03:29:44;223.63;;;86.03;;
46290;SDS011;32023;44.444;26.006;2022-12-24T03:32:11;212.52;;;85.82;;
46290;SDS011;32023;44.444;26.006;2022-12-24T03:34:38;214.95;;;84.93;;
46290;SDS011;32023;44.444;26.006;2022-12-24T03:37:07;215.70;;;84.38;;
46290;SDS011;32023;44.444;26.006;2022-12-24T03:39:39;218.60;;;87.05;;
46290;SDS011;32023;44.444;26.006;2022-12-24T03:42:45;208.27;;;83.30;;
46290;SDS011;32023;44.444;26.006;2022-12-24T03:45:12;212.48;;;87.25;;
46290;SDS011;32023;44.444;26.006;2022-12-24T03:47:38;220.43;;;87.20;;
46290;SDS011;32023;44.444;26.006;2022-12-24T03:50:08;226.98;;;87.63;;
46290;SDS011;32023;44.444;26.006;2022-12-24T03:52:35;212.35;;;86.25;;
46290;SDS011;32023;44.444;26.006;2022-12-24T03:55:04;237.35;;;90.00;;
46290;SDS011;32023;44.444;26.006;2022-12-24T03:57:37;225.50;;;88.82;;
46290;SDS011;32023;44.444;26.006;2022-12-24T04:00:04;225.18;;;91.35;;
46290;SDS011;32023;44.444;26.006;2022-12-24T04:02:32;245.20;;;94.70;;
46290;SDS011;32023;44.444;26.006;2022-12-24T04:05:01;241.25;;;91.75;;
46290;SDS011;32023;44.444;26.006;2022-12-24T04:07:31;228.07;;;93.60;;
46290;SDS011;32023;44.444;26.006;2022-12-24T04:09:58;238.77;;;91.93;;
46290;SDS011;32023;44.444;26.006;2022-12-24T04:12:27;216.73;;;89.38;;
46290;SDS011;32023;44.444;26.006;2022-12-24T04:17:33;244.65;;;93.13;;
46290;SDS011;32023;44.444;26.006;2022-12-24T04:20:12;251.57;;;95.97;;
46290;SDS011;32023;44.444;26.006;2022-12-24T04:22:55;243.55;;;92.10;;
46290;SDS011;32023;44.444;26.006;2022-12-24T04:25:34;233.57;;;93.22;;
46290;SDS011;32023;44.444;26.006;2022-12-24T04:28:10;251.45;;;94.72;;
46290;SDS011;32023;44.444;26.006;2022-12-24T04:30:40;240.45;;;94.50;;
46290;SDS011;32023;44.444;26.006;2022-12-24T04:33:11;248.45;;;97.88;;
46290;SDS011;32023;44.444;26.006;2022-12-24T04:35:44;230.20;;;93.25;;
46290;SDS011;32023;44.444;26.006;2022-12-24T04:38:10;236.05;;;91.68;;
46290;SDS011;32023;44.444;26.006;2022-12-24T04:40:37;241.05;;;94.63;;
46290;SDS011;32023;44.444;26.006;2022-12-24T04:45:35;224.27;;;90.75;;
46290;SDS011;32023;44.444;26.006;2022-12-24T04:48:01;234.80;;;92.78;;
46290;SDS011;32023;44.444;26.006;2022-12-24T04:50:30;212.27;;;87.70;;
46290;SDS011;32023;44.444;26.006;2022-12-24T04:53:03;240.73;;;94.03;;
46290;SDS011;32023;44.444;26.006;2022-12-24T04:55:30;229.43;;;93.88;;
46290;SDS011;32023;44.444;26.006;2022-12-24T04:58:02;222.48;;;89.47;;
46290;SDS011;32023;44.444;26.006;2022-12-24T05:00:32;234.07;;;90.35;;
46290;SDS011;32023;44.444;26.006;2022-12-24T05:03:02;235.15;;;90.70;;
46290;SDS011;32023;44.444;26.006;2022-12-24T05:05:34;219.38;;;89.93;;
46290;SDS011;32023;44.444;26.006;2022-12-24T05:08:08;223.35;;;89.43;;
46290;SDS011;32023;44.444;26.006;2022-12-24T05:10:34;225.38;;;90.95;;
46290;SDS011;32023;44.444;26.006;2022-12-24T05:13:02;219.10;;;88.97;;
46290;SDS011;32023;44.444;26.006;2022-12-24T05:15:35;235.02;;;92.30;;
46290;SDS011;32023;44.444;26.006;2022-12-24T05:18:01;213.35;;;88.63;;
46290;SDS011;32023;44.444;26.006;2022-12-24T05:20:29;218.52;;;88.47;;
46290;SDS011;32023;44.444;26.006;2022-12-24T05:22:56;211.25;;;87.88;;
46290;SDS011;32023;44.444;26.006;2022-12-24T05:25:50;222.18;;;89.13;;
46290;SDS011;32023;44.444;26.006;2022-12-24T05:28:40;231.20;;;91.85;;
46290;SDS011;32023;44.444;26.006;2022-12-24T05:31:10;220.95;;;88.78;;
46290;SDS011;32023;44.444;26.006;2022-12-24T05:33:40;219.90;;;87.97;;
46290;SDS011;32023;44.444;26.006;2022-12-24T05:36:06;217.50;;;90.13;;
46290;SDS011;32023;44.444;26.006;2022-12-24T05:38:34;208.20;;;86.38;;
46290;SDS011;32023;44.444;26.006;2022-12-24T05:41:00;223.02;;;89.60;;
46290;SDS011;32023;44.444;26.006;2022-12-24T05:46:07;215.02;;;87.50;;
46290;SDS011;32023;44.444;26.006;2022-12-24T05:48:47;213.57;;;86.55;;
46290;SDS011;32023;44.444;26.006;2022-12-24T05:51:21;208.38;;;84.88;;
46290;SDS011;32023;44.444;26.006;2022-12-24T05:54:08;218.43;;;89.40;;
46290;SDS011;32023;44.444;26.006;2022-12-24T05:56:38;219.05;;;90.68;;
46290;SDS011;32023;44.444;26.006;2022-12-24T05:59:07;207.32;;;88.97;;
46290;SDS011;32023;44.444;26.006;2022-12-24T06:01:39;216.95;;;89.13;;
46290;SDS011;32023;44.444;26.006;2022-12-24T06:04:20;206.70;;;87.95;;
46290;SDS011;32023;44.444;26.006;2022-12-24T06:06:49;224.25;;;91.45;;
46290;SDS011;32023;44.444;26.006;2022-12-24T06:09:24;207.77;;;88.35;;
46290;SDS011;32023;44.444;26.006;2022-12-24T06:18:53;198.07;;;86.88;;
46290;SDS011;32023;44.444;26.006;2022-12-24T06:21:31;193.35;;;86.20;;
46290;SDS011;32023;44.444;26.006;2022-12-24T06:32:46;149.93;;;74.05;;
46290;SDS011;32023;44.444;26.006;2022-12-24T06:39:09;137.10;;;68.15;;
46290;SDS011;32023;44.444;26.006;2022-12-24T06:44:43;134.27;;;66.93;;
46290;SDS011;32023;44.444;26.006;2022-12-24T06:47:23;125.38;;;64.68;;
46290;SDS011;32023;44.444;26.006;2022-12-24T06:56:26;119.45;;;61.90;;
46290;SDS011;32023;44.444;26.006;2022-12-24T06:59:00;118.15;;;64.30;;
46290;SDS011;32023;44.444;26.006;2022-12-24T07:01:35;116.55;;;58.60;;
46290;SDS011;32023;44.444;26.006;2022-12-24T07:04:01;106.78;;;55.65;;
46290;SDS011;32023;44.444;26.006;2022-12-24T07:06:28;100.90;;;54.33;;
46290;SDS011;32023;44.444;26.006;2022-12-24T07:08:58;98.45;;;54.42;;
46290;SDS011;32023;44.444;26.006;2022-12-24T07:11:40;93.82;;;50.95;;
46290;SDS011;32023;44.444;26.006;2022-12-24T07:14:20;92.57;;;50.47;;
46290;SDS011;32023;44.444;26.006;2022-12-24T07:16:47;92.68;;;50.63;;
46290;SDS011;32023;44.444;26.006;2022-12-24T07:25:26;85.95;;;48.97;;
46290;SDS011;32023;44.444;26.006;2022-12-24T07:31:20;85.78;;;47.05;;
46290;SDS011;32023;44.444;26.006;2022-12-24T07:33:55;80.68;;;47.85;;
46290;SDS011;32023;44.444;26.006;2022-12-24T07:36:36;82.32;;;46.35;;
46290;SDS011;32023;44.444;26.006;2022-12-24T07:39:08;81.03;;;46.70;;
46290;SDS011;32023;44.444;26.006;2022-12-24T07:53:31;75.53;;;42.28;;
46290;SDS011;32023;44.444;26.006;2022-12-24T07:56:00;73.70;;;41.00;;
46290;SDS011;32023;44.444;26.006;2022-12-24T07:58:27;72.57;;;42.90;;
46290;SDS011;32023;44.444;26.006;2022-12-24T08:10:39;66.22;;;39.83;;
46290;SDS011;32023;44.444;26.006;2022-12-24T08:21:53;59.40;;;36.78;;
46290;SDS011;32023;44.444;26.006;2022-12-24T08:34:13;57.50;;;34.78;;
46290;SDS011;32023;44.444;26.006;2022-12-24T08:37:04;60.92;;;35.80;;
46290;SDS011;32023;44.444;26.006;2022-12-24T08:43:33;62.38;;;37.15;;
46290;SDS011;32023;44.444;26.006;2022-12-24T08:47:03;59.17;;;33.60;;
46290;SDS011;32023;44.444;26.006;2022-12-24T08:52:34;54.25;;;34.50;;
46290;SDS011;32023;44.444;26.006;2022-12-24T08:55:37;54.33;;;35.00;;
46290;SDS011;32023;44.444;26.006;2022-12-24T08:58:35;51.75;;;32.60;;
46290;SDS011;32023;44.444;26.006;2022-12-24T09:04:31;51.83;;;32.03;;
46290;SDS011;32023;44.444;26.006;2022-12-24T09:07:09;55.65;;;34.45;;
46290;SDS011;32023;44.444;26.006;2022-12-24T09:09:56;53.35;;;33.40;;
46290;SDS011;32023;44.444;26.006;2022-12-24T09:21:07;55.45;;;35.40;;
46290;SDS011;32023;44.444;26.006;2022-12-24T09:23:46;57.70;;;36.38;;
46290;SDS011;32023;44.444;26.006;2022-12-24T09:26:35;58.13;;;37.78;;
46290;SDS011;32023;44.444;26.006;2022-12-24T09:29:20;60.40;;;35.78;;
46290;SDS011;32023;44.444;26.006;2022-12-24T09:32:43;64.22;;;37.05;;
46290;SDS011;32023;44.444;26.006;2022-12-24T09:35:27;59.10;;;36.67;;
46290;SDS011;32023;44.444;26.006;2022-12-24T09:57:52;69.55;;;38.70;;
46290;SDS011;32023;44.444;26.006;2022-12-24T10:09:49;73.50;;;43.40;;
46290;SDS011;32023;44.444;26.006;2022-12-24T10:28:14;74.03;;;42.60;;
46290;SDS011;32023;44.444;26.006;2022-12-24T10:34:51;74.65;;;42.63;;
46290;SDS011;32023;44.444;26.006;2022-12-24T10:43:32;69.88;;;40.78;;
46290;SDS011;32023;44.444;26.006;2022-12-24T10:46:27;71.10;;;41.22;;
46290;SDS011;32023;44.444;26.006;2022-12-24T10:55:48;68.38;;;40.92;;
46290;SDS011;32023;44.444;26.006;2022-12-24T10:58:31;74.35;;;42.58;;
46290;SDS011;32023;44.444;26.006;2022-12-24T11:01:04;75.40;;;42.85;;
46290;SDS011;32023;44.444;26.006;2022-12-24T11:03:41;80.47;;;42.70;;
46290;SDS011;32023;44.444;26.006;2022-12-24T11:16:27;71.03;;;38.17;;
46290;SDS011;32023;44.444;26.006;2022-12-24T11:22:28;66.82;;;38.78;;
46290;SDS011;32023;44.444;26.006;2022-12-24T11:37:19;74.25;;;41.70;;
46290;SDS011;32023;44.444;26.006;2022-12-24T11:39:53;75.10;;;42.25;;
46290;SDS011;32023;44.444;26.006;2022-12-24T11:45:23;77.00;;;44.85;;
46290;SDS011;32023;44.444;26.006;2022-12-24T11:47:55;76.63;;;43.55;;
46290;SDS011;32023;44.444;26.006;2022-12-24T11:50:34;78.97;;;45.40;;
46290;SDS011;32023;44.444;26.006;2022-12-24T11:53:18;81.13;;;45.55;;
46290;SDS011;32023;44.444;26.006;2022-12-24T11:55:54;81.78;;;45.40;;
46290;SDS011;32023;44.444;26.006;2022-12-24T12:01:27;79.60;;;45.40;;
46290;SDS011;32023;44.444;26.006;2022-12-24T12:04:28;89.82;;;46.70;;
46290;SDS011;32023;44.444;26.006;2022-12-24T12:10:27;78.28;;;43.75;;
46290;SDS011;32023;44.444;26.006;2022-12-24T12:16:37;72.82;;;41.45;;
46290;SDS011;32023;44.444;26.006;2022-12-24T12:22:34;70.97;;;40.88;;
46290;SDS011;32023;44.444;26.006;2022-12-24T12:28:17;70.93;;;41.30;;
46290;SDS011;32023;44.444;26.006;2022-12-24T12:31:20;75.20;;;42.63;;
46290;SDS011;32023;44.444;26.006;2022-12-24T12:34:27;72.50;;;40.50;;
46290;SDS011;32023;44.444;26.006;2022-12-24T12:37:38;70.30;;;41.42;;
46290;SDS011;32023;44.444;26.006;2022-12-24T12:40:17;71.57;;;41.97;;
46290;SDS011;32023;44.444;26.006;2022-12-24T12:52:43;83.20;;;45.13;;
46290;SDS011;32023;44.444;26.006;2022-12-24T12:58:07;83.93;;;46.03;;
46290;SDS011;32023;44.444;26.006;2022-12-24T13:00:55;85.20;;;47.10;;
46290;SDS011;32023;44.444;26.006;2022-12-24T13:15:35;87.57;;;47.17;;
46290;SDS011;32023;44.444;26.006;2022-12-24T13:21:48;88.05;;;48.40;;
46290;SDS011;32023;44.444;26.006;2022-12-24T13:32:50;88.72;;;51.38;;
46290;SDS011;32023;44.444;26.006;2022-12-24T13:35:29;86.50;;;50.90;;
46290;SDS011;32023;44.444;26.006;2022-12-24T13:38:38;89.53;;;52.42;;
46290;SDS011;32023;44.444;26.006;2022-12-24T13:49:58;98.25;;;53.85;;
46290;SDS011;32023;44.444;26.006;2022-12-24T13:52:51;92.72;;;51.25;;
46290;SDS011;32023;44.444;26.006;2022-12-24T13:55:26;95.05;;;53.00;;
46290;SDS011;32023;44.444;26.006;2022-12-24T13:58:00;85.55;;;49.78;;
46290;SDS011;32023;44.444;26.006;2022-12-24T14:00:33;81.78;;;49.88;;
46290;SDS011;32023;44.444;26.006;2022-12-24T14:10:59;85.57;;;48.50;;
46290;SDS011;32023;44.444;26.006;2022-12-24T14:16:24;101.30;;;61.17;;
46290;SDS011;32023;44.444;26.006;2022-12-24T14:21:43;107.68;;;63.25;;
46290;SDS011;32023;44.444;26.006;2022-12-24T14:24:40;93.05;;;54.05;;
46290;SDS011;32023;44.444;26.006;2022-12-24T14:30:27;83.18;;;47.63;;
46290;SDS011;32023;44.444;26.006;2022-12-24T14:36:03;81.60;;;46.65;;
46290;SDS011;32023;44.444;26.006;2022-12-24T14:38:36;80.63;;;46.75;;
46290;SDS011;32023;44.444;26.006;2022-12-24T14:44:22;74.32;;;45.67;;
46290;SDS011;32023;44.444;26.006;2022-12-24T14:47:07;86.20;;;48.40;;
46290;SDS011;32023;44.444;26.006;2022-12-24T14:49:59;78.57;;;47.05;;
46290;SDS011;32023;44.444;26.006;2022-12-24T14:52:41;83.15;;;48.35;;
46290;SDS011;32023;44.444;26.006;2022-12-24T14:55:28;83.97;;;50.03;;
46290;SDS011;32023;44.444;26.006;2022-12-24T15:00:59;85.85;;;49.22;;
46290;SDS011;32023;44.444;26.006;2022-12-24T15:03:41;89.20;;;51.88;;
46290;SDS011;32023;44.444;26.006;2022-12-24T15:06:11;91.05;;;51.75;;
46290;SDS011;32023;44.444;26.006;2022-12-24T15:08:49;102.15;;;54.83;;
46290;SDS011;32023;44.444;26.006;2022-12-24T15:11:24;90.82;;;54.08;;
46290;SDS011;32023;44.444;26.006;2022-12-24T15:13:59;95.43;;;53.97;;
46290;SDS011;32023;44.444;26.006;2022-12-24T15:19:35;90.10;;;52.58;;
46290;SDS011;32023;44.444;26.006;2022-12-24T15:22:27;96.68;;;52.83;;
46290;SDS011;32023;44.444;26.006;2022-12-24T15:25:01;96.00;;;53.08;;
46290;SDS011;32023;44.444;26.006;2022-12-24T15:27:31;93.00;;;53.38;;
46290;SDS011;32023;44.444;26.006;2022-12-24T15:30:16;87.55;;;52.78;;
46290;SDS011;32023;44.444;26.006;2022-12-24T15:32:56;91.18;;;52.90;;
46290;SDS011;32023;44.444;26.006;2022-12-24T15:35:51;96.97;;;53.53;;
46290;SDS011;32023;44.444;26.006;2022-12-24T15:38:39;95.57;;;51.85;;
46290;SDS011;32023;44.444;26.006;2022-12-24T15:41:30;89.85;;;53.85;;
46290;SDS011;32023;44.444;26.006;2022-12-24T15:44:02;94.38;;;52.42;;
46290;SDS011;32023;44.444;26.006;2022-12-24T15:49:20;93.38;;;52.25;;
46290;SDS011;32023;44.444;26.006;2022-12-24T15:55:03;88.78;;;50.30;;
46290;SDS011;32023;44.444;26.006;2022-12-24T15:57:57;86.18;;;48.80;;
46290;SDS011;32023;44.444;26.006;2022-12-24T16:00:27;84.97;;;50.67;;
46290;SDS011;32023;44.444;26.006;2022-12-24T16:06:22;87.10;;;48.28;;
46290;SDS011;32023;44.444;26.006;2022-12-24T16:11:50;82.20;;;48.05;;
46290;SDS011;32023;44.444;26.006;2022-12-24T16:14:27;95.18;;;52.78;;
46290;SDS011;32023;44.444;26.006;2022-12-24T16:16:55;86.47;;;52.47;;
46290;SDS011;32023;44.444;26.006;2022-12-24T16:22:26;84.38;;;50.03;;
46290;SDS011;32023;44.444;26.006;2022-12-24T16:25:26;86.07;;;52.47;;
46290;SDS011;32023;44.444;26.006;2022-12-24T16:27:54;94.15;;;52.13;;
46290;SDS011;32023;44.444;26.006;2022-12-24T16:30:24;88.72;;;53.63;;
46290;SDS011;32023;44.444;26.006;2022-12-24T16:33:00;89.60;;;48.03;;
46290;SDS011;32023;44.444;26.006;2022-12-24T16:35:34;89.57;;;51.83;;
46290;SDS011;32023;44.444;26.006;2022-12-24T16:38:15;88.72;;;51.72;;
46290;SDS011;32023;44.444;26.006;2022-12-24T16:41:11;92.60;;;52.45;;
46290;SDS011;32023;44.444;26.006;2022-12-24T16:44:07;114.95;;;67.28;;
46290;SDS011;32023;44.444;26.006;2022-12-24T16:46:59;90.78;;;51.58;;
46290;SDS011;32023;44.444;26.006;2022-12-24T16:49:54;90.22;;;52.10;;
46290;SDS011;32023;44.444;26.006;2022-12-24T16:52:33;90.10;;;51.30;;
46290;SDS011;32023;44.444;26.006;2022-12-24T16:55:05;95.32;;;51.40;;
46290;SDS011;32023;44.444;26.006;2022-12-24T16:57:45;94.47;;;55.53;;
46290;SDS011;32023;44.444;26.006;2022-12-24T17:03:03;91.18;;;52.17;;
46290;SDS011;32023;44.444;26.006;2022-12-24T17:05:56;91.65;;;52.80;;
46290;SDS011;32023;44.444;26.006;2022-12-24T17:08:36;94.97;;;52.38;;
46290;SDS011;32023;44.444;26.006;2022-12-24T17:11:05;93.20;;;54.13;;
46290;SDS011;32023;44.444;26.006;2022-12-24T17:13:39;94.65;;;54.15;;
46290;SDS011;32023;44.444;26.006;2022-12-24T17:19:05;98.30;;;56.13;;
46290;SDS011;32023;44.444;26.006;2022-12-24T17:21:48;94.50;;;54.10;;
46290;SDS011;32023;44.444;26.006;2022-12-24T17:24:23;91.57;;;55.15;;
46290;SDS011;32023;44.444;26.006;2022-12-24T17:27:05;93.90;;;53.45;;
46290;SDS011;32023;44.444;26.006;2022-12-24T17:32:52;88.45;;;51.47;;
46290;SDS011;32023;44.444;26.006;2022-12-24T17:38:59;89.63;;;53.42;;
46290;SDS011;32023;44.444;26.006;2022-12-24T17:41:53;96.10;;;55.08;;
46290;SDS011;32023;44.444;26.006;2022-12-24T17:44:44;94.22;;;51.03;;
46290;SDS011;32023;44.444;26.006;2022-12-24T17:54:36;89.95;;;55.35;;
46290;SDS011;32023;44.444;26.006;2022-12-24T17:57:45;94.65;;;53.90;;
46290;SDS011;32023;44.444;26.006;2022-12-24T18:03:15;95.60;;;55.92;;
46290;SDS011;32023;44.444;26.006;2022-12-24T18:06:18;102.88;;;53.65;;
46290;SDS011;32023;44.444;26.006;2022-12-24T18:08:54;94.68;;;55.50;;
46290;SDS011;32023;44.444;26.006;2022-12-24T18:11:31;103.10;;;56.05;;
46290;SDS011;32023;44.444;26.006;2022-12-24T18:17:05;96.10;;;54.05;;
46290;SDS011;32023;44.444;26.006;2022-12-24T18:19:39;93.75;;;56.75;;
46290;SDS011;32023;44.444;26.006;2022-12-24T18:22:10;98.57;;;55.70;;
46290;SDS011;32023;44.444;26.006;2022-12-24T18:25:09;92.45;;;54.03;;
46290;SDS011;32023;44.444;26.006;2022-12-24T18:34:14;100.05;;;55.45;;
46290;SDS011;32023;44.444;26.006;2022-12-24T18:37:06;97.13;;;54.55;;
46290;SDS011;32023;44.444;26.006;2022-12-24T18:39:58;97.10;;;54.70;;
46290;SDS011;32023;44.444;26.006;2022-12-24T18:43:01;99.78;;;54.45;;
46290;SDS011;32023;44.444;26.006;2022-12-24T18:45:34;97.13;;;56.90;;
46290;SDS011;32023;44.444;26.006;2022-12-24T18:48:33;92.13;;;52.47;;
46290;SDS011;32023;44.444;26.006;2022-12-24T18:51:12;96.22;;;55.53;;
46290;SDS011;32023;44.444;26.006;2022-12-24T18:57:10;94.05;;;54.83;;
46290;SDS011;32023;44.444;26.006;2022-12-24T18:59:44;93.38;;;54.78;;
46290;SDS011;32023;44.444;26.006;2022-12-24T19:02:22;96.97;;;54.83;;
46290;SDS011;32023;44.444;26.006;2022-12-24T19:08:12;99.05;;;53.15;;
46290;SDS011;32023;44.444;26.006;2022-12-24T19:10:42;100.65;;;56.45;;
46290;SDS011;32023;44.444;26.006;2022-12-24T19:13:10;97.68;;;56.05;;
46290;SDS011;32023;44.444;26.006;2022-12-24T19:21:50;94.90;;;53.30;;
46290;SDS011;32023;44.444;26.006;2022-12-24T19:27:53;98.03;;;54.28;;
46290;SDS011;32023;44.444;26.006;2022-12-24T19:39:58;92.57;;;53.20;;
46290;SDS011;32023;44.444;26.006;2022-12-24T19:42:33;94.60;;;53.88;;
46290;SDS011;32023;44.444;26.006;2022-12-24T19:45:05;102.57;;;56.17;;
46290;SDS011;32023;44.444;26.006;2022-12-24T19:47:56;97.85;;;53.95;;
46290;SDS011;32023;44.444;26.006;2022-12-24T19:50:27;97.85;;;55.53;;
46290;SDS011;32023;44.444;26.006;2022-12-24T19:53:02;95.60;;;54.97;;
46290;SDS011;32023;44.444;26.006;2022-12-24T19:55:58;93.70;;;53.50;;
46290;SDS011;32023;44.444;26.006;2022-12-24T19:58:27;99.28;;;53.83;;
46290;SDS011;32023;44.444;26.006;2022-12-24T20:01:20;93.30;;;52.97;;
46290;SDS011;32023;44.444;26.006;2022-12-24T20:07:14;85.28;;;50.65;;
46290;SDS011;32023;44.444;26.006;2022-12-24T20:10:05;95.28;;;53.97;;
46290;SDS011;32023;44.444;26.006;2022-12-24T20:12:58;86.22;;;51.00;;
46290;SDS011;32023;44.444;26.006;2022-12-24T20:15:27;97.43;;;52.10;;
46290;SDS011;32023;44.444;26.006;2022-12-24T20:18:04;94.22;;;50.53;;
46290;SDS011;32023;44.444;26.006;2022-12-24T20:20:40;88.55;;;51.58;;
46290;SDS011;32023;44.444;26.006;2022-12-24T20:23:12;88.90;;;50.13;;
46290;SDS011;32023;44.444;26.006;2022-12-24T20:26:01;97.85;;;51.97;;
46290;SDS011;32023;44.444;26.006;2022-12-24T20:28:46;85.88;;;48.92;;
46290;SDS011;32023;44.444;26.006;2022-12-24T20:31:17;102.05;;;54.67;;
46290;SDS011;32023;44.444;26.006;2022-12-24T20:34:06;99.80;;;55.60;;
46290;SDS011;32023;44.444;26.006;2022-12-24T20:36:35;92.35;;;51.22;;
46290;SDS011;32023;44.444;26.006;2022-12-24T20:41:39;94.90;;;52.85;;
46290;SDS011;32023;44.444;26.006;2022-12-24T20:44:14;92.63;;;52.05;;
46290;SDS011;32023;44.444;26.006;2022-12-24T20:46:59;93.40;;;53.75;;
46290;SDS011;32023;44.444;26.006;2022-12-24T20:49:39;89.72;;;54.28;;
46290;SDS011;32023;44.444;26.006;2022-12-24T20:55:29;91.47;;;50.28;;
46290;SDS011;32023;44.444;26.006;2022-12-24T20:58:00;85.32;;;50.47;;
46290;SDS011;32023;44.444;26.006;2022-12-24T21:00:38;85.75;;;49.58;;
46290;SDS011;32023;44.444;26.006;2022-12-24T21:03:24;83.25;;;47.08;;
46290;SDS011;32023;44.444;26.006;2022-12-24T21:06:05;93.55;;;49.45;;
46290;SDS011;32023;44.444;26.006;2022-12-24T21:08:57;91.20;;;50.40;;
46290;SDS011;32023;44.444;26.006;2022-12-24T21:11:51;89.82;;;52.78;;
46290;SDS011;32023;44.444;26.006;2022-12-24T21:14:25;99.28;;;51.85;;
46290;SDS011;32023;44.444;26.006;2022-12-24T21:17:08;91.07;;;51.95;;
46290;SDS011;32023;44.444;26.006;2022-12-24T21:23:32;94.78;;;52.97;;
46290;SDS011;32023;44.444;26.006;2022-12-24T21:48:54;78.00;;;46.13;;
46290;SDS011;32023;44.444;26.006;2022-12-24T21:54:37;84.20;;;45.45;;
46290;SDS011;32023;44.444;26.006;2022-12-24T21:57:13;83.93;;;44.90;;
46290;SDS011;32023;44.444;26.006;2022-12-24T22:00:02;85.45;;;45.60;;
46290;SDS011;32023;44.444;26.006;2022-12-24T22:02:54;77.88;;;43.53;;
46290;SDS011;32023;44.444;26.006;2022-12-24T22:05:44;83.40;;;45.58;;
46290;SDS011;32023;44.444;26.006;2022-12-24T22:08:37;75.40;;;43.15;;
46290;SDS011;32023;44.444;26.006;2022-12-24T22:11:24;80.10;;;41.78;;
46290;SDS011;32023;44.444;26.006;2022-12-24T22:14:09;71.43;;;41.20;;
46290;SDS011;32023;44.444;26.006;2022-12-24T22:19:05;71.05;;;41.45;;
46290;SDS011;32023;44.444;26.006;2022-12-24T22:21:48;76.20;;;41.70;;
46290;SDS011;32023;44.444;26.006;2022-12-24T22:24:20;81.43;;;43.13;;
46290;SDS011;32023;44.444;26.006;2022-12-24T22:29:19;69.72;;;41.08;;
46290;SDS011;32023;44.444;26.006;2022-12-24T22:32:06;74.25;;;41.97;;
46290;SDS011;32023;44.444;26.006;2022-12-24T22:34:35;88.40;;;47.22;;
46290;SDS011;32023;44.444;26.006;2022-12-24T22:37:04;81.15;;;43.97;;
46290;SDS011;32023;44.444;26.006;2022-12-24T22:42:17;76.40;;;41.67;;
46290;SDS011;32023;44.444;26.006;2022-12-24T22:44:56;75.43;;;42.60;;
46290;SDS011;32023;44.444;26.006;2022-12-24T22:47:38;79.25;;;43.92;;
46290;SDS011;32023;44.444;26.006;2022-12-24T22:53:02;74.40;;;43.08;;
46290;SDS011;32023;44.444;26.006;2022-12-24T22:55:32;72.57;;;41.88;;
46290;SDS011;32023;44.444;26.006;2022-12-24T22:58:01;74.07;;;42.03;;
46290;SDS011;32023;44.444;26.006;2022-12-24T23:00:37;74.28;;;41.63;;
46290;SDS011;32023;44.444;26.006;2022-12-24T23:03:19;74.40;;;40.00;;
46290;SDS011;32023;44.444;26.006;2022-12-24T23:06:00;74.28;;;39.67;;